sensor_id;sensor_type;location;lat;lon;timestamp;pressure;altitude;pressure_sealevel;temperature;humidity
69239;BME280;56349;51.816;-0.026;2022-07-24T00:01:36;101050.58;;;28.08;29.49
69239;BME280;56349;51.816;-0.026;2022-07-24T00:04:02;101046.21;;;28.04;29.54
69239;BME280;56349;51.816;-0.026;2022-07-24T00:06:27;101046.01;;;28.01;29.56
69239;BME280;56349;51.816;-0.026;2022-07-24T00:08:53;101039.60;;;27.98;29.59
69239;BME280;56349;51.816;-0.026;2022-07-24T00:11:19;101040.77;;;27.96;29.61
69239;BME280;56349;51.816;-0.026;2022-07-24T00:13:45;101044.92;;;27.96;29.60
69239;BME280;56349;51.816;-0.026;2022-07-24T00:16:11;101043.04;;;27.96;29.61
69239;BME280;56349;51.816;-0.026;2022-07-24T00:18:36;101040.81;;;27.94;29.63
69239;BME280;56349;51.816;-0.026;2022-07-24T00:21:02;101042.75;;;27.91;29.65
69239;BME280;56349;51.816;-0.026;2022-07-24T00:23:28;101038.12;;;27.87;29.67
69239;BME280;56349;51.816;-0.026;2022-07-24T00:25:55;101028.02;;;27.85;29.70
69239;BME280;56349;51.816;-0.026;2022-07-24T00:28:20;101032.50;;;27.83;29.72
69239;BME280;56349;51.816;-0.026;2022-07-24T00:30:45;101042.78;;;27.82;29.73
69239;BME280;56349;51.816;-0.026;2022-07-24T00:33:11;101038.72;;;27.78;29.76
69239;BME280;56349;51.816;-0.026;2022-07-24T00:35:37;101041.02;;;27.76;29.79
69239;BME280;56349;51.816;-0.026;2022-07-24T00:38:04;101041.39;;;27.74;29.80
69239;BME280;56349;51.816;-0.026;2022-07-24T00:40:28;101041.48;;;27.72;29.83
69239;BME280;56349;51.816;-0.026;2022-07-24T00:42:54;101035.63;;;27.70;29.85
69239;BME280;56349;51.816;-0.026;2022-07-24T00:45:20;101029.17;;;27.68;29.87
69239;BME280;56349;51.816;-0.026;2022-07-24T00:47:45;101025.87;;;27.66;29.88
69239;BME280;56349;51.816;-0.026;2022-07-24T00:50:11;101026.41;;;27.91;29.89
69239;BME280;56349;51.816;-0.026;2022-07-24T00:52:37;101024.41;;;27.63;29.91
69239;BME280;56349;51.816;-0.026;2022-07-24T00:55:03;101036.63;;;27.40;29.92
69239;BME280;56349;51.816;-0.026;2022-07-24T00:57:28;101036.68;;;27.60;29.93
69239;BME280;56349;51.816;-0.026;2022-07-24T00:59:54;101033.00;;;27.58;29.95
69239;BME280;56349;51.816;-0.026;2022-07-24T01:02:20;101029.79;;;27.57;29.97
69239;BME280;56349;51.816;-0.026;2022-07-24T01:04:46;101026.86;;;27.55;29.99
69239;BME280;56349;51.816;-0.026;2022-07-24T01:07:11;101018.03;;;27.54;30.00
69239;BME280;56349;51.816;-0.026;2022-07-24T01:09:37;101021.73;;;27.53;30.00
69239;BME280;56349;51.816;-0.026;2022-07-24T01:12:03;101020.56;;;27.51;30.03
69239;BME280;56349;51.816;-0.026;2022-07-24T01:14:31;101015.73;;;27.50;30.05
69239;BME280;56349;51.816;-0.026;2022-07-24T01:16:54;101014.73;;;27.55;29.99
69239;BME280;56349;51.816;-0.026;2022-07-24T01:19:19;101015.81;;;27.57;29.96
69239;BME280;56349;51.816;-0.026;2022-07-24T01:21:46;101018.26;;;27.56;29.96
69239;BME280;56349;51.816;-0.026;2022-07-24T01:24:11;101018.21;;;27.81;29.98
69239;BME280;56349;51.816;-0.026;2022-07-24T01:26:36;101020.81;;;27.54;29.98
69239;BME280;56349;51.816;-0.026;2022-07-24T01:29:02;101018.08;;;27.51;30.01
69239;BME280;56349;51.816;-0.026;2022-07-24T01:31:28;101017.82;;;27.49;30.03
69239;BME280;56349;51.816;-0.026;2022-07-24T01:33:53;101016.97;;;27.48;30.05
69239;BME280;56349;51.816;-0.026;2022-07-24T01:36:19;101015.65;;;27.48;30.05
69239;BME280;56349;51.816;-0.026;2022-07-24T01:38:45;101013.37;;;27.49;30.03
69239;BME280;56349;51.816;-0.026;2022-07-24T01:41:11;101011.78;;;27.50;30.03
69239;BME280;56349;51.816;-0.026;2022-07-24T01:43:36;101009.40;;;27.49;30.04
69239;BME280;56349;51.816;-0.026;2022-07-24T01:46:02;101007.48;;;27.49;30.02
69239;BME280;56349;51.816;-0.026;2022-07-24T01:48:28;101005.68;;;27.49;30.02
69239;BME280;56349;51.816;-0.026;2022-07-24T01:50:53;101004.62;;;27.48;30.04
69239;BME280;56349;51.816;-0.026;2022-07-24T01:53:19;100998.33;;;27.45;30.05
69239;BME280;56349;51.816;-0.026;2022-07-24T01:55:45;100994.12;;;27.43;30.07
69239;BME280;56349;51.816;-0.026;2022-07-24T01:58:10;100992.87;;;27.41;30.10
69239;BME280;56349;51.816;-0.026;2022-07-24T02:00:36;100991.39;;;27.39;30.10
69239;BME280;56349;51.816;-0.026;2022-07-24T02:03:02;100990.83;;;27.65;30.11
69239;BME280;56349;51.816;-0.026;2022-07-24T02:05:28;100994.67;;;27.39;30.11
69239;BME280;56349;51.816;-0.026;2022-07-24T02:07:56;100988.78;;;27.38;30.12
69239;BME280;56349;51.816;-0.026;2022-07-24T02:10:19;100988.94;;;27.36;30.14
69239;BME280;56349;51.816;-0.026;2022-07-24T02:12:45;100987.30;;;27.60;30.16
69239;BME280;56349;51.816;-0.026;2022-07-24T02:15:11;100989.34;;;27.58;30.18
69239;BME280;56349;51.816;-0.026;2022-07-24T02:17:37;100988.33;;;27.31;30.18
69239;BME280;56349;51.816;-0.026;2022-07-24T02:20:03;100988.00;;;27.29;30.21
69239;BME280;56349;51.816;-0.026;2022-07-24T02:22:28;100986.11;;;27.28;30.24
69239;BME280;56349;51.816;-0.026;2022-07-24T02:24:54;100986.51;;;27.55;30.23
69239;BME280;56349;51.816;-0.026;2022-07-24T02:27:20;100991.21;;;27.29;30.22
69239;BME280;56349;51.816;-0.026;2022-07-24T02:29:45;100991.76;;;27.30;30.21
69239;BME280;56349;51.816;-0.026;2022-07-24T02:32:11;100992.38;;;27.27;30.23
69239;BME280;56349;51.816;-0.026;2022-07-24T02:34:37;100990.63;;;27.25;30.25
69239;BME280;56349;51.816;-0.026;2022-07-24T02:37:02;100987.61;;;27.52;30.25
69239;BME280;56349;51.816;-0.026;2022-07-24T02:39:28;100989.42;;;27.51;30.25
69239;BME280;56349;51.816;-0.026;2022-07-24T02:41:54;100989.76;;;27.23;30.27
69239;BME280;56349;51.816;-0.026;2022-07-24T02:44:19;100989.09;;;27.19;30.29
69239;BME280;56349;51.816;-0.026;2022-07-24T02:46:45;100989.35;;;27.44;30.33
69239;BME280;56349;51.816;-0.026;2022-07-24T02:49:11;100981.28;;;27.15;30.36
69239;BME280;56349;51.816;-0.026;2022-07-24T02:51:37;100986.08;;;27.13;30.37
69239;BME280;56349;51.816;-0.026;2022-07-24T02:54:02;100984.04;;;27.39;30.37
69239;BME280;56349;51.816;-0.026;2022-07-24T02:56:28;100981.34;;;27.11;30.40
69239;BME280;56349;51.816;-0.026;2022-07-24T02:58:54;100993.34;;;27.09;30.43
69239;BME280;56349;51.816;-0.026;2022-07-24T03:01:19;100986.88;;;27.35;30.41
69239;BME280;56349;51.816;-0.026;2022-07-24T03:03:45;100995.76;;;27.56;30.41
69239;BME280;56349;51.816;-0.026;2022-07-24T03:06:11;100993.11;;;27.34;30.40
69239;BME280;56349;51.816;-0.026;2022-07-24T03:08:36;100989.75;;;27.33;30.40
69239;BME280;56349;51.816;-0.026;2022-07-24T03:11:02;100984.92;;;27.06;30.40
69239;BME280;56349;51.816;-0.026;2022-07-24T03:13:28;100982.56;;;27.31;30.41
69239;BME280;56349;51.816;-0.026;2022-07-24T03:15:53;100978.18;;;27.30;30.42
69239;BME280;56349;51.816;-0.026;2022-07-24T03:18:19;100981.47;;;27.02;30.43
69239;BME280;56349;51.816;-0.026;2022-07-24T03:20:45;100978.49;;;27.00;30.43
69239;BME280;56349;51.816;-0.026;2022-07-24T03:23:10;100981.33;;;27.26;30.45
69239;BME280;56349;51.816;-0.026;2022-07-24T03:25:36;100981.06;;;27.48;30.43
69239;BME280;56349;51.816;-0.026;2022-07-24T03:28:01;100982.31;;;26.98;30.44
69239;BME280;56349;51.816;-0.026;2022-07-24T03:30:27;100983.94;;;27.24;30.45
69239;BME280;56349;51.816;-0.026;2022-07-24T03:32:53;100987.06;;;27.24;30.48
69239;BME280;56349;51.816;-0.026;2022-07-24T03:35:19;100987.09;;;26.99;30.50
69239;BME280;56349;51.816;-0.026;2022-07-24T03:37:44;100983.33;;;27.30;30.51
69239;BME280;56349;51.816;-0.026;2022-07-24T03:40:11;100989.87;;;27.11;30.48
69239;BME280;56349;51.816;-0.026;2022-07-24T03:42:36;100990.42;;;27.49;30.42
69239;BME280;56349;51.816;-0.026;2022-07-24T03:45:02;100985.44;;;27.35;30.33
69239;BME280;56349;51.816;-0.026;2022-07-24T03:47:27;100980.15;;;27.52;30.23
69239;BME280;56349;51.816;-0.026;2022-07-24T03:49:57;100977.64;;;27.45;30.09
69239;BME280;56349;51.816;-0.026;2022-07-24T03:52:18;100979.71;;;27.84;29.92
69239;BME280;56349;51.816;-0.026;2022-07-24T03:54:43;100977.01;;;27.77;29.73
69239;BME280;56349;51.816;-0.026;2022-07-24T03:57:09;100965.10;;;27.90;29.55
69239;BME280;56349;51.816;-0.026;2022-07-24T03:59:35;100966.74;;;27.72;29.40
69239;BME280;56349;51.816;-0.026;2022-07-24T04:02:00;100966.60;;;28.03;29.29
69239;BME280;56349;51.816;-0.026;2022-07-24T04:04:26;100961.56;;;28.06;29.20
69239;BME280;56349;51.816;-0.026;2022-07-24T04:06:52;100968.36;;;28.06;29.15
69239;BME280;56349;51.816;-0.026;2022-07-24T04:09:17;100964.89;;;28.04;29.12
69239;BME280;56349;51.816;-0.026;2022-07-24T04:11:43;100966.32;;;28.01;29.12
69239;BME280;56349;51.816;-0.026;2022-07-24T04:14:09;100964.92;;;28.19;29.11
69239;BME280;56349;51.816;-0.026;2022-07-24T04:16:35;100967.94;;;28.14;29.12
69239;BME280;56349;51.816;-0.026;2022-07-24T04:19:00;100969.38;;;28.09;29.14
69239;BME280;56349;51.816;-0.026;2022-07-24T04:21:26;100963.79;;;27.80;29.16
69239;BME280;56349;51.816;-0.026;2022-07-24T04:23:51;100966.09;;;27.74;29.20
69239;BME280;56349;51.816;-0.026;2022-07-24T04:26:17;100968.15;;;27.90;29.24
69239;BME280;56349;51.816;-0.026;2022-07-24T04:28:43;100963.24;;;27.83;29.28
69239;BME280;56349;51.816;-0.026;2022-07-24T04:31:08;100957.20;;;27.79;29.31
69239;BME280;56349;51.816;-0.026;2022-07-24T04:33:34;100954.16;;;27.72;29.37
69239;BME280;56349;51.816;-0.026;2022-07-24T04:36:00;100962.02;;;27.92;29.43
69239;BME280;56349;51.816;-0.026;2022-07-24T04:38:26;100969.97;;;27.60;29.48
69239;BME280;56349;51.816;-0.026;2022-07-24T04:40:51;100969.96;;;27.54;29.53
69239;BME280;56349;51.816;-0.026;2022-07-24T04:43:17;100975.70;;;27.50;29.58
69239;BME280;56349;51.816;-0.026;2022-07-24T04:45:43;100977.14;;;27.47;29.62
69239;BME280;56349;51.816;-0.026;2022-07-24T04:48:08;100977.09;;;27.43;29.64
69239;BME280;56349;51.816;-0.026;2022-07-24T04:50:34;100974.22;;;27.37;29.69
69239;BME280;56349;51.816;-0.026;2022-07-24T04:53:00;100971.12;;;27.33;29.72
69239;BME280;56349;51.816;-0.026;2022-07-24T04:55:26;100969.42;;;27.29;29.75
69239;BME280;56349;51.816;-0.026;2022-07-24T04:57:51;100966.95;;;27.26;29.81
69239;BME280;56349;51.816;-0.026;2022-07-24T05:00:17;100963.21;;;27.73;29.83
69239;BME280;56349;51.816;-0.026;2022-07-24T05:02:43;100961.72;;;27.21;29.85
69239;BME280;56349;51.816;-0.026;2022-07-24T05:05:09;100963.06;;;27.17;29.91
69239;BME280;56349;51.816;-0.026;2022-07-24T05:07:34;100957.59;;;27.14;29.95
69239;BME280;56349;51.816;-0.026;2022-07-24T05:10:00;100954.46;;;27.42;29.92
69239;BME280;56349;51.816;-0.026;2022-07-24T05:12:26;100955.99;;;27.13;29.97
69239;BME280;56349;51.816;-0.026;2022-07-24T05:14:52;100957.49;;;27.09;30.01
69239;BME280;56349;51.816;-0.026;2022-07-24T05:17:18;100951.86;;;27.08;30.03
69239;BME280;56349;51.816;-0.026;2022-07-24T05:19:43;100959.60;;;27.34;30.03
69239;BME280;56349;51.816;-0.026;2022-07-24T05:22:09;100956.73;;;27.55;30.05
69239;BME280;56349;51.816;-0.026;2022-07-24T05:24:35;100955.11;;;27.53;30.07
69239;BME280;56349;51.816;-0.026;2022-07-24T05:27:01;100957.87;;;27.03;30.08
69239;BME280;56349;51.816;-0.026;2022-07-24T05:29:26;100957.82;;;27.28;30.10
69239;BME280;56349;51.816;-0.026;2022-07-24T05:31:52;100958.76;;;26.99;30.14
69239;BME280;56349;51.816;-0.026;2022-07-24T05:34:18;100957.57;;;27.22;30.17
69239;BME280;56349;51.816;-0.026;2022-07-24T05:36:43;100957.00;;;26.94;30.20
69239;BME280;56349;51.816;-0.026;2022-07-24T05:39:09;100957.35;;;27.41;30.21
69239;BME280;56349;51.816;-0.026;2022-07-24T05:41:35;100956.77;;;26.89;30.24
69239;BME280;56349;51.816;-0.026;2022-07-24T05:44:01;100954.93;;;27.59;30.25
69239;BME280;56349;51.816;-0.026;2022-07-24T05:46:26;100951.95;;;27.13;30.28
69239;BME280;56349;51.816;-0.026;2022-07-24T05:48:52;100949.41;;;27.34;30.30
69239;BME280;56349;51.816;-0.026;2022-07-24T05:51:18;100952.76;;;26.84;30.32
69239;BME280;56349;51.816;-0.026;2022-07-24T05:53:44;100952.52;;;27.32;30.37
69239;BME280;56349;51.816;-0.026;2022-07-24T05:56:09;100955.55;;;26.82;30.40
69239;BME280;56349;51.816;-0.026;2022-07-24T05:58:35;100950.94;;;27.09;30.41
69239;BME280;56349;51.816;-0.026;2022-07-24T06:01:01;100947.47;;;27.07;30.43
69239;BME280;56349;51.816;-0.026;2022-07-24T06:03:27;100957.66;;;27.28;30.43
69239;BME280;56349;51.816;-0.026;2022-07-24T06:05:52;100957.86;;;27.27;30.46
69239;BME280;56349;51.816;-0.026;2022-07-24T06:08:18;100958.00;;;27.27;30.43
69239;BME280;56349;51.816;-0.026;2022-07-24T06:10:44;100960.31;;;27.05;30.48
69239;BME280;56349;51.816;-0.026;2022-07-24T06:13:09;100955.75;;;26.81;30.66
69239;BME280;56349;51.816;-0.026;2022-07-24T06:15:35;100951.00;;;27.10;31.03
69239;BME280;56349;51.816;-0.026;2022-07-24T06:18:00;100954.15;;;27.15;31.25
69239;BME280;56349;51.816;-0.026;2022-07-24T06:20:26;100950.12;;;26.97;31.57
69239;BME280;56349;51.816;-0.026;2022-07-24T06:22:52;100949.99;;;27.09;31.69
69239;BME280;56349;51.816;-0.026;2022-07-24T06:25:18;100953.51;;;27.26;31.65
69239;BME280;56349;51.816;-0.026;2022-07-24T06:27:44;100953.12;;;27.45;31.65
69239;BME280;56349;51.816;-0.026;2022-07-24T06:30:13;100953.96;;;27.66;31.54
69239;BME280;56349;51.816;-0.026;2022-07-24T06:32:35;100953.74;;;27.90;31.34
69239;BME280;56349;51.816;-0.026;2022-07-24T06:35:01;100946.49;;;27.89;31.14
69239;BME280;56349;51.816;-0.026;2022-07-24T06:37:27;100948.71;;;28.12;30.93
69239;BME280;56349;51.816;-0.026;2022-07-24T06:39:52;100940.06;;;28.10;30.69
69239;BME280;56349;51.816;-0.026;2022-07-24T06:42:18;100938.71;;;28.35;30.50
69239;BME280;56349;51.816;-0.026;2022-07-24T06:44:44;100935.19;;;28.59;30.26
69239;BME280;56349;51.816;-0.026;2022-07-24T06:47:09;100933.48;;;28.84;30.01
69239;BME280;56349;51.816;-0.026;2022-07-24T06:49:35;100929.02;;;29.06;29.75
69239;BME280;56349;51.816;-0.026;2022-07-24T06:52:01;100931.91;;;28.84;29.55
69239;BME280;56349;51.816;-0.026;2022-07-24T06:54:26;100930.66;;;29.47;29.32
69239;BME280;56349;51.816;-0.026;2022-07-24T06:56:52;100932.57;;;29.44;29.12
69239;BME280;56349;51.816;-0.026;2022-07-24T06:59:17;100934.40;;;29.39;28.92
69239;BME280;56349;51.816;-0.026;2022-07-24T07:01:43;100937.13;;;29.55;28.70
69239;BME280;56349;51.816;-0.026;2022-07-24T07:04:09;100932.95;;;29.73;28.48
69239;BME280;56349;51.816;-0.026;2022-07-24T07:06:34;100934.57;;;29.38;28.33
69239;BME280;56349;51.816;-0.026;2022-07-24T07:09:01;100930.44;;;29.72;28.16
69239;BME280;56349;51.816;-0.026;2022-07-24T07:11:26;100928.04;;;29.84;27.98
69239;BME280;56349;51.816;-0.026;2022-07-24T07:13:51;100926.89;;;29.74;27.83
69239;BME280;56349;51.816;-0.026;2022-07-24T07:16:17;100931.87;;;29.86;27.70
69239;BME280;56349;51.816;-0.026;2022-07-24T07:18:43;100930.80;;;30.19;27.56
69239;BME280;56349;51.816;-0.026;2022-07-24T07:21:09;100931.22;;;30.05;27.43
69239;BME280;56349;51.816;-0.026;2022-07-24T07:23:34;100934.06;;;29.86;27.31
69239;BME280;56349;51.816;-0.026;2022-07-24T07:26:00;100930.59;;;30.46;27.24
69239;BME280;56349;51.816;-0.026;2022-07-24T07:28:26;100925.80;;;30.53;27.09
69239;BME280;56349;51.816;-0.026;2022-07-24T07:30:52;100924.96;;;30.36;26.98
69239;BME280;56349;51.816;-0.026;2022-07-24T07:33:18;100923.23;;;30.38;26.81
69239;BME280;56349;51.816;-0.026;2022-07-24T07:35:43;100922.44;;;30.34;27.19
69239;BME280;56349;51.816;-0.026;2022-07-24T07:38:09;100928.37;;;30.22;27.37
69239;BME280;56349;51.816;-0.026;2022-07-24T07:40:35;100925.21;;;30.25;27.45
69239;BME280;56349;51.816;-0.026;2022-07-24T07:43:00;100921.71;;;29.81;27.68
69239;BME280;56349;51.816;-0.026;2022-07-24T07:45:26;100917.77;;;29.78;27.92
69239;BME280;56349;51.816;-0.026;2022-07-24T07:47:52;100918.91;;;29.43;28.19
69239;BME280;56349;51.816;-0.026;2022-07-24T07:50:17;100920.64;;;29.42;28.56
69239;BME280;56349;51.816;-0.026;2022-07-24T07:52:44;100917.67;;;29.11;28.93
69239;BME280;56349;51.816;-0.026;2022-07-24T07:55:09;100912.38;;;28.84;29.05
69239;BME280;56349;51.816;-0.026;2022-07-24T07:57:34;100908.76;;;28.85;29.14
69239;BME280;56349;51.816;-0.026;2022-07-24T07:59:59;100915.24;;;28.87;29.45
69239;BME280;56349;51.816;-0.026;2022-07-24T08:02:25;100915.27;;;28.43;29.60
69239;BME280;56349;51.816;-0.026;2022-07-24T08:04:51;100911.77;;;28.43;29.72
69239;BME280;56349;51.816;-0.026;2022-07-24T08:07:17;100909.27;;;28.22;30.03
69239;BME280;56349;51.816;-0.026;2022-07-24T08:09:42;100908.81;;;28.08;30.25
69239;BME280;56349;51.816;-0.026;2022-07-24T08:12:08;100913.48;;;27.93;30.38
69239;BME280;56349;51.816;-0.026;2022-07-24T08:14:34;100908.99;;;27.76;30.45
69239;BME280;56349;51.816;-0.026;2022-07-24T08:17:00;100908.35;;;28.11;30.57
69239;BME280;56349;51.816;-0.026;2022-07-24T08:19:26;100913.47;;;28.01;30.58
69239;BME280;56349;51.816;-0.026;2022-07-24T08:21:51;100919.58;;;27.67;30.63
69239;BME280;56349;51.816;-0.026;2022-07-24T08:24:17;100916.22;;;27.77;30.55
69239;BME280;56349;51.816;-0.026;2022-07-24T08:26:42;100912.40;;;27.43;30.49
69239;BME280;56349;51.816;-0.026;2022-07-24T08:29:08;100911.84;;;27.82;30.54
69239;BME280;56349;51.816;-0.026;2022-07-24T08:31:34;100909.93;;;27.48;30.72
69239;BME280;56349;51.816;-0.026;2022-07-24T08:34:00;100908.40;;;27.42;30.70
69239;BME280;56349;51.816;-0.026;2022-07-24T08:36:25;100905.17;;;27.34;30.52
69239;BME280;56349;51.816;-0.026;2022-07-24T08:38:51;100903.85;;;27.55;30.38
69239;BME280;56349;51.816;-0.026;2022-07-24T08:41:17;100899.92;;;27.23;30.28
69239;BME280;56349;51.816;-0.026;2022-07-24T08:43:43;100894.49;;;27.19;30.22
69239;BME280;56349;51.816;-0.026;2022-07-24T08:46:10;100893.40;;;27.17;30.26
69239;BME280;56349;51.816;-0.026;2022-07-24T08:48:34;100889.85;;;27.40;30.30
69239;BME280;56349;51.816;-0.026;2022-07-24T08:51:01;100888.22;;;27.37;30.40
69239;BME280;56349;51.816;-0.026;2022-07-24T08:53:26;100881.11;;;27.09;30.50
69239;BME280;56349;51.816;-0.026;2022-07-24T08:55:52;100872.80;;;27.36;30.60
69239;BME280;56349;51.816;-0.026;2022-07-24T08:58:17;100879.77;;;27.35;30.67
69239;BME280;56349;51.816;-0.026;2022-07-24T09:00:45;100880.26;;;27.07;30.69
69239;BME280;56349;51.816;-0.026;2022-07-24T09:03:09;100878.26;;;27.55;30.78
69239;BME280;56349;51.816;-0.026;2022-07-24T09:08:06;100876.13;;;27.02;30.70
69239;BME280;56349;51.816;-0.026;2022-07-24T09:10:29;100862.02;;;27.03;30.63
69239;BME280;56349;51.816;-0.026;2022-07-24T09:12:51;100859.16;;;27.30;30.65
69239;BME280;56349;51.816;-0.026;2022-07-24T09:15:19;100865.21;;;27.02;30.70
69239;BME280;56349;51.816;-0.026;2022-07-24T09:17:48;100866.48;;;27.29;30.73
69239;BME280;56349;51.816;-0.026;2022-07-24T09:20:09;100868.92;;;27.30;30.69
69239;BME280;56349;51.816;-0.026;2022-07-24T09:22:35;100860.05;;;27.04;30.68
69239;BME280;56349;51.816;-0.026;2022-07-24T09:25:06;100852.56;;;27.04;30.58
69239;BME280;56349;51.816;-0.026;2022-07-24T09:27:25;100854.29;;;27.04;30.54
69239;BME280;56349;51.816;-0.026;2022-07-24T09:29:50;100850.27;;;27.31;30.50
69239;BME280;56349;51.816;-0.026;2022-07-24T09:32:22;100851.22;;;27.05;30.40
69239;BME280;56349;51.816;-0.026;2022-07-24T09:34:42;100853.02;;;27.06;30.30
69239;BME280;56349;51.816;-0.026;2022-07-24T09:37:08;100850.91;;;27.55;30.20
69239;BME280;56349;51.816;-0.026;2022-07-24T09:39:35;100846.74;;;27.07;30.15
69239;BME280;56349;51.816;-0.026;2022-07-24T09:42:01;100843.86;;;27.35;30.11
69239;BME280;56349;51.816;-0.026;2022-07-24T09:44:25;100838.87;;;27.56;30.03
69239;BME280;56349;51.816;-0.026;2022-07-24T09:46:55;100838.46;;;27.33;29.94
69239;BME280;56349;51.816;-0.026;2022-07-24T09:49:19;100834.96;;;27.06;29.91
69239;BME280;56349;51.816;-0.026;2022-07-24T09:51:42;100830.85;;;27.05;29.86
69239;BME280;56349;51.816;-0.026;2022-07-24T09:54:07;100830.35;;;27.54;29.82
69239;BME280;56349;51.816;-0.026;2022-07-24T09:56:36;100829.14;;;27.07;29.77
69239;BME280;56349;51.816;-0.026;2022-07-24T09:58:58;100825.26;;;27.57;29.82
69239;BME280;56349;51.816;-0.026;2022-07-24T10:01:26;100825.78;;;27.10;29.73
69239;BME280;56349;51.816;-0.026;2022-07-24T10:03:51;100818.96;;;27.35;29.70
69239;BME280;56349;51.816;-0.026;2022-07-24T10:06:17;100808.95;;;27.35;29.76
69239;BME280;56349;51.816;-0.026;2022-07-24T10:08:42;100812.18;;;27.59;29.79
69239;BME280;56349;51.816;-0.026;2022-07-24T10:11:08;100804.21;;;27.13;29.75
69239;BME280;56349;51.816;-0.026;2022-07-24T10:13:33;100811.73;;;27.42;29.79
69239;BME280;56349;51.816;-0.026;2022-07-24T10:16:22;100809.52;;;27.65;29.73
69239;BME280;56349;51.816;-0.026;2022-07-24T10:18:29;100808.37;;;27.44;29.65
69239;BME280;56349;51.816;-0.026;2022-07-24T10:20:49;100807.65;;;27.68;29.69
69239;BME280;56349;51.816;-0.026;2022-07-24T10:23:22;100809.58;;;27.53;29.73
69239;BME280;56349;51.816;-0.026;2022-07-24T10:25:52;100803.99;;;27.32;29.70
69239;BME280;56349;51.816;-0.026;2022-07-24T10:28:08;100806.00;;;27.36;29.68
69239;BME280;56349;51.816;-0.026;2022-07-24T10:30:31;100804.55;;;27.40;29.68
69239;BME280;56349;51.816;-0.026;2022-07-24T10:32:57;100801.70;;;27.71;29.68
69239;BME280;56349;51.816;-0.026;2022-07-24T10:35:24;100805.84;;;27.48;29.66
69239;BME280;56349;51.816;-0.026;2022-07-24T10:37:55;100807.71;;;27.52;29.59
69239;BME280;56349;51.816;-0.026;2022-07-24T10:40:23;100795.95;;;27.56;29.34
69239;BME280;56349;51.816;-0.026;2022-07-24T10:45:14;100789.32;;;27.64;29.11
69239;BME280;56349;51.816;-0.026;2022-07-24T10:47:30;100791.86;;;27.65;29.08
69239;BME280;56349;51.816;-0.026;2022-07-24T10:49:56;100781.46;;;27.64;29.06
69239;BME280;56349;51.816;-0.026;2022-07-24T10:52:24;100783.84;;;27.64;29.07
69239;BME280;56349;51.816;-0.026;2022-07-24T10:54:48;100786.66;;;27.62;29.11
69239;BME280;56349;51.816;-0.026;2022-07-24T10:57:14;100783.35;;;27.60;29.15
69239;BME280;56349;51.816;-0.026;2022-07-24T10:59:40;100782.75;;;27.59;29.19
69239;BME280;56349;51.816;-0.026;2022-07-24T11:04:31;100771.73;;;27.59;29.24
69239;BME280;56349;51.816;-0.026;2022-07-24T11:07:00;100769.23;;;27.59;29.25
69239;BME280;56349;51.816;-0.026;2022-07-24T11:09:23;100763.75;;;27.58;29.27
69239;BME280;56349;51.816;-0.026;2022-07-24T11:14:17;100762.49;;;27.57;29.30
69239;BME280;56349;51.816;-0.026;2022-07-24T11:16:40;100758.47;;;27.58;29.31
69239;BME280;56349;51.816;-0.026;2022-07-24T11:21:33;100756.24;;;27.81;29.34
69239;BME280;56349;51.816;-0.026;2022-07-24T11:31:13;100755.56;;;27.78;29.23
69239;BME280;56349;51.816;-0.026;2022-07-24T11:33:39;100750.58;;;27.74;29.36
69239;BME280;56349;51.816;-0.026;2022-07-24T11:36:07;100742.94;;;27.68;29.50
69239;BME280;56349;51.816;-0.026;2022-07-24T11:38:31;100738.85;;;27.68;29.62
69239;BME280;56349;51.816;-0.026;2022-07-24T11:41:04;100727.97;;;27.74;29.66
69239;BME280;56349;51.816;-0.026;2022-07-24T11:43:22;100728.75;;;27.86;29.67
69239;BME280;56349;51.816;-0.026;2022-07-24T11:45:52;100727.99;;;27.79;29.61
69239;BME280;56349;51.816;-0.026;2022-07-24T11:48:18;100728.01;;;28.20;29.52
69239;BME280;56349;51.816;-0.026;2022-07-24T11:50:39;100725.29;;;28.22;29.38
69239;BME280;56349;51.816;-0.026;2022-07-24T11:53:06;100719.33;;;28.27;29.14
69239;BME280;56349;51.816;-0.026;2022-07-24T11:55:30;100718.21;;;28.29;28.95
69239;BME280;56349;51.816;-0.026;2022-07-24T11:57:55;100718.08;;;28.72;28.78
69239;BME280;56349;51.816;-0.026;2022-07-24T12:00:23;100717.79;;;28.72;28.62
69239;BME280;56349;51.816;-0.026;2022-07-24T12:02:48;100704.11;;;28.94;28.43
69239;BME280;56349;51.816;-0.026;2022-07-24T12:07:39;100698.20;;;29.12;27.98
69239;BME280;56349;51.816;-0.026;2022-07-24T12:10:03;100701.49;;;29.34;27.83
69239;BME280;56349;51.816;-0.026;2022-07-24T12:12:31;100692.80;;;29.03;27.70
69239;BME280;56349;51.816;-0.026;2022-07-24T12:15:01;100685.38;;;29.71;27.57
69239;BME280;56349;51.816;-0.026;2022-07-24T12:17:21;100687.75;;;29.90;27.41
69239;BME280;56349;51.816;-0.026;2022-07-24T12:19:52;100684.06;;;29.78;27.28
69239;BME280;56349;51.816;-0.026;2022-07-24T12:22:12;100681.66;;;29.90;27.12
69239;BME280;56349;51.816;-0.026;2022-07-24T12:24:38;100678.10;;;30.03;27.03
69239;BME280;56349;51.816;-0.026;2022-07-24T12:27:04;100682.24;;;29.96;26.86
69239;BME280;56349;51.816;-0.026;2022-07-24T12:29:30;100678.95;;;30.08;26.72
69239;BME280;56349;51.816;-0.026;2022-07-24T12:34:21;100673.08;;;30.29;26.53
69239;BME280;56349;51.816;-0.026;2022-07-24T12:36:46;100668.00;;;30.40;26.45
69239;BME280;56349;51.816;-0.026;2022-07-24T12:39:12;100665.05;;;30.51;26.36
69239;BME280;56349;51.816;-0.026;2022-07-24T12:41:44;100661.39;;;30.64;26.26
69239;BME280;56349;51.816;-0.026;2022-07-24T12:44:05;100660.31;;;30.47;26.17
69239;BME280;56349;51.816;-0.026;2022-07-24T12:46:31;100656.10;;;30.56;26.05
69239;BME280;56349;51.816;-0.026;2022-07-24T12:48:57;100656.35;;;30.40;25.96
69239;BME280;56349;51.816;-0.026;2022-07-24T12:51:20;100669.56;;;30.46;25.90
69239;BME280;56349;51.816;-0.026;2022-07-24T12:53:46;100659.94;;;30.51;25.85
69239;BME280;56349;51.816;-0.026;2022-07-24T12:56:13;100645.75;;;30.54;25.80